Time;durP1;ratioP1;P1;durP2;ratioP2;P2;SDS_P1;SDS_P2;PMS_P1;PMS_P2;Temp;Humidity;BMP_temperature;BMP_pressure;BME280_temperature;BME280_humidity;BME280_pressure;Samples;Min_cycle;Max_cycle;Signal;HPM_P1;HPM_P2
2021/11/07 00:02:18;;;;;;;11.52;6.93;;;;;;;6.51;98.16;101629.88;5056942;28;20067;-72
2021/11/07 00:04:46;;;;;;;10.38;6.65;;;;;;;6.52;98.50;101631.56;5034192;28;20033;-72
2021/11/07 00:07:18;;;;;;;10.98;6.63;;;;;;;6.50;98.59;101630.97;5069882;28;20071;-72
2021/11/07 00:12:25;;;;;;;10.07;6.18;;;;;;;6.46;98.93;101622.34;5047187;28;20542;-72
2021/11/07 00:14:52;;;;;;;11.10;6.97;;;;;;;6.45;98.74;101619.81;5056484;28;20037;-72
2021/11/07 00:17:20;;;;;;;10.18;6.82;;;;;;;6.42;98.81;101614.75;5027667;28;20112;-72
2021/11/07 00:19:49;;;;;;;11.90;6.82;;;;;;;6.42;98.98;101614.75;5060919;28;20063;-72
2021/11/07 00:22:20;;;;;;;9.35;6.30;;;;;;;6.43;98.91;101621.97;5066873;28;20115;-72
2021/11/07 00:24:58;;;;;;;12.43;6.50;;;;;;;6.40;98.99;101615.00;5056992;28;20050;-72
2021/11/07 00:37:46;;;;;;;10.18;6.03;;;;;;;6.39;99.41;101599.53;5044994;28;20143;-72
2021/11/07 00:45:55;;;;;;;12.00;5.82;;;;;;;6.39;99.27;101571.94;5066826;28;20061;-72
2021/11/07 00:51:02;;;;;;;10.00;5.90;;;;;;;6.39;99.62;101571.09;5059568;28;20124;-72
2021/11/07 00:53:42;;;;;;;8.35;5.60;;;;;;;6.37;99.51;101565.81;5025256;28;20542;-72
2021/11/07 00:58:57;;;;;;;10.77;5.95;;;;;;;6.38;99.62;101577.69;5039486;28;20029;-72
2021/11/07 01:01:27;;;;;;;12.60;5.50;;;;;;;6.38;99.62;101580.44;5055325;28;20032;-72
2021/11/07 01:03:53;;;;;;;11.32;5.43;;;;;;;6.37;99.52;101582.38;5047890;28;20036;-72
2021/11/07 01:06:19;;;;;;;9.48;5.70;;;;;;;6.39;100.00;101580.22;5056581;28;20391;-72
2021/11/07 01:08:45;;;;;;;8.05;5.20;;;;;;;6.40;99.84;101590.16;5053719;28;20024;-72
2021/11/07 01:11:10;;;;;;;8.50;5.32;;;;;;;6.40;99.54;101583.81;5060775;28;20037;-72
2021/11/07 01:13:36;;;;;;;9.88;5.63;;;;;;;6.41;99.77;101580.81;5058037;28;20025;-72
2021/11/07 01:16:02;;;;;;;9.65;4.82;;;;;;;6.43;99.66;101581.41;5060342;28;20096;-72
2021/11/07 01:18:27;;;;;;;8.63;5.38;;;;;;;6.44;99.98;101580.34;5038293;28;20469;-72
2021/11/07 01:20:53;;;;;;;9.95;5.25;;;;;;;6.46;100.00;101577.31;5039995;28;20061;-73
2021/11/07 01:23:26;;;;;;;9.77;5.43;;;;;;;6.46;100.00;101572.66;5078247;28;20374;-72
2021/11/07 01:25:56;;;;;;;8.80;4.95;;;;;;;6.48;100.00;101578.75;5060244;28;20047;-72
2021/11/07 01:28:23;;;;;;;7.57;4.70;;;;;;;6.51;100.00;101573.84;5043370;28;20403;-72
2021/11/07 01:30:54;;;;;;;7.45;4.70;;;;;;;6.53;100.00;101566.19;5060845;28;20029;-72
2021/11/07 01:33:25;;;;;;;9.98;5.00;;;;;;;6.54;100.00;101563.16;5055781;28;20474;-72
2021/11/07 01:38:23;;;;;;;10.88;4.80;;;;;;;6.58;100.00;101563.53;5056874;28;20029;-72
2021/11/07 01:41:00;;;;;;;8.73;4.85;;;;;;;6.58;100.00;101558.00;5064514;28;20068;-72
2021/11/07 01:43:27;;;;;;;10.48;4.97;;;;;;;6.60;100.00;101550.31;5040882;28;20028;-72
2021/11/07 01:46:12;;;;;;;7.30;4.43;;;;;;;6.62;100.00;101551.75;5058041;28;20029;-71
2021/11/07 01:48:54;;;;;;;6.85;4.30;;;;;;;6.64;100.00;101543.25;5057524;28;20029;-71
2021/11/07 01:51:21;;;;;;;7.05;4.20;;;;;;;6.66;100.00;101543.84;5061019;28;20035;-72
2021/11/07 01:53:47;;;;;;;17.67;4.95;;;;;;;6.66;100.00;101530.88;5042472;28;20058;-72
2021/11/07 01:56:13;;;;;;;10.85;4.68;;;;;;;6.69;100.00;101529.56;5065605;28;20032;-72
2021/11/07 01:58:40;;;;;;;7.85;4.07;;;;;;;6.71;100.00;101525.47;5026982;28;20036;-72
2021/11/07 02:01:05;;;;;;;12.68;4.53;;;;;;;6.71;100.00;101521.84;5018663;28;20029;-72
2021/11/07 02:03:31;;;;;;;7.40;3.95;;;;;;;6.72;100.00;101518.84;5065186;28;20036;-72
2021/11/07 02:05:57;;;;;;;8.88;4.40;;;;;;;6.75;100.00;101514.75;5040002;28;20033;-72
2021/11/07 02:08:23;;;;;;;9.98;4.10;;;;;;;6.78;100.00;101518.97;5043710;28;20111;-72
2021/11/07 02:10:50;;;;;;;8.65;4.20;;;;;;;6.77;100.00;101512.59;5051064;28;20075;-72
2021/11/07 02:13:16;;;;;;;8.25;4.00;;;;;;;6.80;100.00;101520.41;5037748;28;20057;-72
2021/11/07 02:15:42;;;;;;;7.57;4.10;;;;;;;6.80;100.00;101516.78;5075982;28;20033;-72
2021/11/07 02:18:07;;;;;;;8.40;4.32;;;;;;;6.82;100.00;101509.94;5055877;28;20035;-72
2021/11/07 02:20:38;;;;;;;5.38;3.70;;;;;;;6.84;100.00;101513.28;5063279;28;20044;-72
2021/11/07 02:23:11;;;;;;;7.00;3.53;;;;;;;6.84;100.00;101516.06;5058009;28;20412;-72
2021/11/07 02:25:37;;;;;;;6.25;3.58;;;;;;;6.85;100.00;101515.00;5039019;28;20033;-72
2021/11/07 02:28:03;;;;;;;11.27;3.83;;;;;;;6.87;100.00;101511.97;5054160;28;20339;-72
2021/11/07 02:30:29;;;;;;;5.63;3.50;;;;;;;6.88;100.00;101513.63;5073194;28;20440;-72
2021/11/07 02:32:55;;;;;;;6.35;3.92;;;;;;;6.89;100.00;101507.03;5069473;28;20025;-71
2021/11/07 02:35:21;;;;;;;10.70;3.70;;;;;;;6.90;100.00;101504.03;5056352;28;20058;-72
2021/11/07 02:37:46;;;;;;;9.52;3.47;;;;;;;6.91;100.00;101502.13;5055066;28;20036;-72
2021/11/07 02:40:12;;;;;;;6.35;3.33;;;;;;;6.92;100.00;101504.63;5031897;28;20063;-72
2021/11/07 02:42:39;;;;;;;4.75;3.22;;;;;;;6.90;100.00;101495.72;5057323;28;20032;-72
2021/11/07 02:45:05;;;;;;;5.85;3.25;;;;;;;6.93;100.00;101492.47;5053875;28;20100;-72
2021/11/07 02:47:31;;;;;;;8.90;4.00;;;;;;;6.96;100.00;101495.84;5071176;28;20060;-72
2021/11/07 02:49:56;;;;;;;7.93;3.60;;;;;;;6.98;100.00;101493.69;5055119;28;20037;-72
2021/11/07 02:52:22;;;;;;;6.07;3.25;;;;;;;6.98;99.77;101490.91;5057450;28;20092;-72
2021/11/07 02:54:47;;;;;;;6.45;3.22;;;;;;;6.97;100.00;101490.09;5059957;28;20489;-72
2021/11/07 02:57:17;;;;;;;5.28;3.25;;;;;;;7.00;100.00;101491.53;5054240;28;20529;-71
2021/11/07 02:59:42;;;;;;;7.00;3.25;;;;;;;7.00;100.00;101488.75;5063544;28;20050;-72
2021/11/07 03:02:09;;;;;;;6.10;3.10;;;;;;;7.00;100.00;101484.06;5042918;28;20037;-72
2021/11/07 03:04:34;;;;;;;7.57;3.40;;;;;;;7.05;100.00;101475.03;5056786;28;20028;-72
2021/11/07 03:07:00;;;;;;;7.18;3.10;;;;;;;7.06;100.00;101465.66;5042323;28;20051;-72
2021/11/07 03:09:28;;;;;;;6.20;3.17;;;;;;;7.04;100.00;101465.91;5050206;28;20082;-72
2021/11/07 03:11:54;;;;;;;6.00;3.15;;;;;;;7.07;100.00;101467.34;5053181;28;20032;-72
2021/11/07 03:14:23;;;;;;;6.90;3.20;;;;;;;7.08;100.00;101463.50;5038673;28;20048;-72
2021/11/07 03:16:48;;;;;;;6.38;2.97;;;;;;;7.09;100.00;101459.66;5067741;28;20485;-72
2021/11/07 03:19:14;;;;;;;8.52;3.10;;;;;;;7.10;100.00;101461.31;5053219;28;20091;-72
2021/11/07 03:21:40;;;;;;;5.00;2.90;;;;;;;7.11;100.00;101454.72;5041577;28;20025;-72
2021/11/07 03:24:05;;;;;;;5.45;3.00;;;;;;;7.12;100.00;101451.69;5076357;28;20048;-72
2021/11/07 03:26:33;;;;;;;4.32;2.90;;;;;;;7.14;100.00;101446.75;5059390;28;20079;-72
2021/11/07 03:29:01;;;;;;;7.18;3.08;;;;;;;7.14;100.00;101446.75;5060211;28;20028;-72
2021/11/07 03:31:50;;;;;;;5.05;2.90;;;;;;;7.16;100.00;101441.00;5025501;28;20432;-72
2021/11/07 03:34:27;;;;;;;4.60;2.55;;;;;;;7.19;100.00;101437.75;5052061;28;20039;-72
2021/11/07 03:36:55;;;;;;;7.75;2.92;;;;;;;7.19;100.00;101436.88;5038049;28;20036;-72
2021/11/07 03:39:20;;;;;;;5.35;2.90;;;;;;;7.22;100.00;101428.13;5031475;28;20493;-72
2021/11/07 03:41:46;;;;;;;6.40;2.60;;;;;;;7.22;100.00;101436.41;5057062;28;20025;-72
2021/11/07 03:44:13;;;;;;;5.80;2.97;;;;;;;7.23;100.00;101441.66;5048828;28;20032;-72
2021/11/07 03:46:38;;;;;;;6.50;2.75;;;;;;;7.26;100.00;101446.69;5048070;28;20499;-72
2021/11/07 03:49:04;;;;;;;6.50;2.72;;;;;;;7.25;100.00;101436.75;5040516;28;20029;-72
2021/11/07 03:51:30;;;;;;;4.75;2.70;;;;;;;7.26;100.00;101432.88;5073231;28;20037;-72
2021/11/07 03:53:58;;;;;;;9.48;3.35;;;;;;;7.29;100.00;101437.06;5058186;28;20470;-72
2021/11/07 03:56:24;;;;;;;4.18;2.40;;;;;;;7.29;100.00;101437.91;5064631;28;20033;-72
2021/11/07 03:58:49;;;;;;;4.22;2.45;;;;;;;7.30;100.00;101444.25;5072263;28;20485;-72
2021/11/07 04:01:15;;;;;;;5.85;2.35;;;;;;;7.31;100.00;101446.78;5056622;28;20033;-72
2021/11/07 04:03:40;;;;;;;5.25;2.75;;;;;;;7.34;100.00;101445.44;5036925;28;20036;-72
2021/11/07 04:06:06;;;;;;;2.70;2.22;;;;;;;7.34;100.00;101440.75;5069098;28;20048;-72
2021/11/07 04:08:31;;;;;;;5.30;2.55;;;;;;;7.35;100.00;101434.16;5069277;28;20036;-72
2021/11/07 04:10:57;;;;;;;4.30;2.75;;;;;;;7.37;100.00;101437.50;5057251;28;20103;-72
2021/11/07 04:13:23;;;;;;;4.60;3.03;;;;;;;7.38;100.00;101439.19;5057215;28;20044;-72
2021/11/07 04:15:49;;;;;;;4.68;3.17;;;;;;;7.39;100.00;101449.13;5038026;28;20060;-72
2021/11/07 04:18:14;;;;;;;5.28;2.97;;;;;;;7.39;100.00;101443.63;5040595;28;20035;-72
2021/11/07 04:20:40;;;;;;;5.07;3.00;;;;;;;7.43;100.00;101432.06;5035622;28;20036;-72
2021/11/07 04:23:06;;;;;;;4.00;2.70;;;;;;;7.45;100.00;101440.94;5041983;28;20033;-72
2021/11/07 04:25:31;;;;;;;5.28;2.53;;;;;;;7.46;100.00;101435.16;5045334;28;20029;-72
2021/11/07 04:27:57;;;;;;;5.18;2.53;;;;;;;7.48;100.00;101430.22;5052624;28;20122;-72
2021/11/07 04:30:23;;;;;;;3.47;2.58;;;;;;;7.49;100.00;101431.03;5057212;28;20040;-72
2021/11/07 04:32:48;;;;;;;6.72;2.90;;;;;;;7.50;100.00;101427.22;5056618;28;20108;-72
2021/11/07 04:35:14;;;;;;;6.28;3.05;;;;;;;7.51;100.00;101421.41;5058959;28;20029;-72
2021/11/07 04:37:42;;;;;;;5.68;2.80;;;;;;;7.53;100.00;101415.66;5056884;28;20033;-72
2021/11/07 04:40:08;;;;;;;3.80;2.70;;;;;;;7.53;100.00;101404.59;5039708;28;20040;-72
2021/11/07 04:42:34;;;;;;;5.03;2.33;;;;;;;7.55;100.00;101408.78;5059191;28;20032;-72
2021/11/07 04:44:59;;;;;;;3.97;2.58;;;;;;;7.55;100.00;101397.72;5063067;28;20117;-72
2021/11/07 04:47:25;;;;;;;7.28;2.80;;;;;;;7.57;100.00;101400.22;5059939;28;20029;-72
2021/11/07 04:49:53;;;;;;;4.22;2.55;;;;;;;7.58;100.00;101399.16;5058830;28;20044;-72
2021/11/07 04:52:19;;;;;;;5.22;2.65;;;;;;;7.60;100.00;101396.94;5041956;28;20032;-72
2021/11/07 04:54:45;;;;;;;4.82;2.58;;;;;;;7.63;100.00;101396.44;5066218;28;20492;-72
2021/11/07 04:57:10;;;;;;;8.02;3.13;;;;;;;7.64;100.00;101403.66;5062991;28;20083;-72
2021/11/07 04:59:36;;;;;;;6.40;2.78;;;;;;;7.66;100.00;101406.16;5063143;28;20029;-72
2021/11/07 05:02:02;;;;;;;7.65;3.15;;;;;;;7.65;100.00;101404.50;5057224;28;20032;-72
2021/11/07 05:04:28;;;;;;;6.22;3.00;;;;;;;7.67;100.00;101399.56;5038371;28;20025;-72
2021/11/07 05:06:53;;;;;;;4.75;3.20;;;;;;;7.68;100.00;101399.28;5049741;28;20032;-72
2021/11/07 05:09:19;;;;;;;4.13;2.80;;;;;;;7.68;100.00;101413.13;5037709;28;20029;-72
2021/11/07 05:11:44;;;;;;;6.32;3.08;;;;;;;7.71;100.00;101396.00;5056937;28;20025;-72
2021/11/07 05:14:10;;;;;;;4.55;2.60;;;;;;;7.69;100.00;101398.22;5058139;28;20379;-72
2021/11/07 05:16:35;;;;;;;5.15;3.00;;;;;;;7.71;100.00;101393.25;5040826;28;20524;-71
2021/11/07 05:19:03;;;;;;;4.78;2.47;;;;;;;7.70;100.00;101394.34;5060612;28;20064;-72
2021/11/07 05:21:30;;;;;;;7.07;2.92;;;;;;;7.72;100.00;101386.66;5063015;28;20061;-72
2021/11/07 05:23:56;;;;;;;4.95;2.97;;;;;;;7.72;100.00;101381.13;5039452;28;20051;-72
2021/11/07 05:26:21;;;;;;;5.05;2.70;;;;;;;7.73;100.00;101384.72;5060412;28;20040;-72
2021/11/07 05:28:47;;;;;;;4.55;2.60;;;;;;;7.72;100.00;101375.59;5023588;28;20035;-72
2021/11/07 05:31:12;;;;;;;9.23;2.28;;;;;;;7.76;100.00;101373.97;5043763;28;20066;-72
2021/11/07 05:33:39;;;;;;;9.25;2.72;;;;;;;7.75;100.00;101371.47;5062492;28;20037;-72
2021/11/07 05:36:04;;;;;;;5.50;2.78;;;;;;;7.77;100.00;101369.28;5063181;28;20065;-72
2021/11/07 05:38:30;;;;;;;3.15;2.00;;;;;;;7.78;100.00;101370.97;5038513;28;20037;-72
2021/11/07 05:40:56;;;;;;;6.03;2.83;;;;;;;7.79;100.00;101359.63;5043249;28;20051;-72
2021/11/07 05:43:23;;;;;;;5.05;2.17;;;;;;;7.77;100.00;101364.59;5022960;28;20056;-72
2021/11/07 05:45:49;;;;;;;4.55;2.40;;;;;;;7.78;100.00;101357.13;5061818;28;20485;-72
2021/11/07 05:48:14;;;;;;;3.45;2.00;;;;;;;7.80;100.00;101366.00;5037902;28;20052;-72
2021/11/07 05:50:41;;;;;;;2.70;1.73;;;;;;;7.81;100.00;101349.16;5065384;28;20540;-72
2021/11/07 05:53:06;;;;;;;3.00;2.38;;;;;;;7.80;100.00;101346.63;5066084;28;20050;-72
2021/11/07 05:55:32;;;;;;;4.20;2.20;;;;;;;7.82;100.00;101348.06;5055554;28;20100;-72
2021/11/07 05:57:59;;;;;;;4.65;2.05;;;;;;;7.82;100.00;101347.22;5051531;28;20083;-72
2021/11/07 06:00:25;;;;;;;4.43;2.10;;;;;;;7.81;100.00;101351.94;5057740;28;20036;-72
2021/11/07 06:02:51;;;;;;;5.85;2.30;;;;;;;7.83;100.00;101343.38;5076571;28;20473;-72
2021/11/07 06:05:16;;;;;;;5.80;2.40;;;;;;;7.86;100.00;101336.50;5066641;28;20048;-72
2021/11/07 06:07:42;;;;;;;5.18;2.25;;;;;;;7.87;100.00;101343.72;5069597;28;20032;-72
2021/11/07 06:10:07;;;;;;;6.93;2.72;;;;;;;7.88;100.00;101351.72;5056690;28;20048;-72
2021/11/07 06:12:33;;;;;;;7.18;2.20;;;;;;;7.90;100.00;101337.66;5056663;28;20024;-72
2021/11/07 06:14:58;;;;;;;2.47;1.85;;;;;;;7.91;100.00;101339.31;5058274;28;20025;-72
2021/11/07 06:17:24;;;;;;;3.67;2.00;;;;;;;7.92;100.00;101335.47;5039755;28;20093;-72
2021/11/07 06:19:50;;;;;;;4.40;2.70;;;;;;;7.96;100.00;101331.09;5052337;28;20033;-73
2021/11/07 06:22:17;;;;;;;5.93;2.35;;;;;;;7.97;100.00;101343.84;5015818;28;20025;-72
2021/11/07 06:24:42;;;;;;;4.28;2.10;;;;;;;7.97;100.00;101339.16;5042566;28;20033;-72
2021/11/07 06:27:08;;;;;;;4.28;1.88;;;;;;;8.00;100.00;101338.63;5068048;28;20516;-72
2021/11/07 06:29:33;;;;;;;7.38;2.47;;;;;;;8.01;100.00;101340.28;5055385;28;20044;-72
2021/11/07 06:31:59;;;;;;;6.30;2.53;;;;;;;8.04;100.00;101350.03;5056231;28;20037;-72
2021/11/07 06:34:26;;;;;;;3.42;1.98;;;;;;;8.05;100.00;101346.16;5062001;28;20048;-72
2021/11/07 06:36:52;;;;;;;5.10;2.05;;;;;;;8.06;100.00;101342.31;5050129;28;20033;-72
2021/11/07 06:39:18;;;;;;;5.72;1.98;;;;;;;8.09;100.00;101346.50;5038508;28;20025;-72
2021/11/07 06:41:44;;;;;;;4.75;2.10;;;;;;;8.10;100.00;101337.91;5039255;28;20041;-72
2021/11/07 06:44:14;;;;;;;7.30;2.50;;;;;;;8.11;100.00;101339.59;5045189;28;20033;-72
2021/11/07 06:46:39;;;;;;;4.05;2.10;;;;;;;8.11;100.00;101339.59;5065344;28;20035;-72
2021/11/07 06:49:06;;;;;;;3.38;2.03;;;;;;;8.13;100.00;101348.47;5038317;28;20029;-71
2021/11/07 06:51:31;;;;;;;4.22;2.03;;;;;;;8.14;100.00;101343.78;5057336;28;20055;-72
2021/11/07 06:53:57;;;;;;;5.88;2.00;;;;;;;8.15;100.00;101351.81;5068325;28;20107;-72
2021/11/07 06:56:22;;;;;;;5.28;1.83;;;;;;;8.18;100.00;101344.94;5057704;28;20029;-72
2021/11/07 06:58:48;;;;;;;4.00;1.98;;;;;;;8.20;100.00;101345.53;5057777;28;20029;-72
2021/11/07 07:01:14;;;;;;;9.25;2.17;;;;;;;8.21;100.00;101352.72;5055433;28;20028;-72
2021/11/07 07:03:39;;;;;;;3.33;1.90;;;;;;;8.21;100.00;101361.03;5053359;28;20075;-71
2021/11/07 07:06:05;;;;;;;5.88;2.30;;;;;;;8.23;100.00;101365.19;5057082;28;20385;-71
2021/11/07 07:08:41;;;;;;;2.90;1.67;;;;;;;8.24;100.00;101366.03;5053744;28;20025;-71
2021/11/07 07:11:11;;;;;;;6.45;1.95;;;;;;;8.26;100.00;101367.44;5038075;28;20045;-72
2021/11/07 07:21:08;;;;;;;6.90;1.80;;;;;;;8.33;100.00;101360.88;5053548;28;20036;-71
2021/11/07 07:26:55;;;;;;;3.17;1.58;;;;;;;8.33;100.00;101358.97;5037381;28;20025;-72
2021/11/07 07:29:01;;;;;;;3.42;1.75;;;;;;;8.36;100.00;101352.06;5042433;28;20060;-72
2021/11/07 07:34:02;;;;;;;3.78;1.90;;;;;;;8.41;100.00;101360.47;5046760;28;20028;-71
2021/11/07 07:36:27;;;;;;;4.00;1.50;;;;;;;8.43;100.00;101364.66;5055816;28;20021;-72
2021/11/07 07:38:53;;;;;;;2.60;1.40;;;;;;;8.44;100.00;101377.41;5050931;28;20500;-72
2021/11/07 07:41:19;;;;;;;3.92;1.70;;;;;;;8.44;100.00;101371.00;5054678;28;20025;-72
2021/11/07 07:43:44;;;;;;;5.95;1.48;;;;;;;8.45;100.00;101368.00;5056304;28;20029;-72
2021/11/07 07:46:12;;;;;;;3.25;1.20;;;;;;;8.49;100.00;101371.91;5066313;28;20602;-72
2021/11/07 07:48:42;;;;;;;3.28;1.48;;;;;;;8.52;100.00;101365.00;5035954;28;20033;-72
2021/11/07 07:51:08;;;;;;;3.40;1.30;;;;;;;8.54;100.00;101362.84;5053327;28;20370;-72
2021/11/07 07:53:34;;;;;;;2.63;1.33;;;;;;;8.57;100.00;101358.72;5048040;28;20120;-72
2021/11/07 07:56:00;;;;;;;3.10;1.40;;;;;;;8.58;100.00;101364.00;5058054;28;20028;-72
2021/11/07 07:58:26;;;;;;;4.38;1.00;;;;;;;8.60;100.00;101372.88;5060912;28;20029;-72
2021/11/07 08:00:53;;;;;;;4.88;1.15;;;;;;;8.65;100.00;101378.47;5059333;28;20036;-72
2021/11/07 08:03:19;;;;;;;3.75;1.45;;;;;;;8.67;100.00;101367.97;5048290;28;20037;-70
2021/11/07 08:05:45;;;;;;;3.92;1.50;;;;;;;8.75;100.00;101374.13;5055860;28;20035;-71
2021/11/07 08:08:10;;;;;;;4.93;1.48;;;;;;;8.75;100.00;101368.59;5066275;28;20024;-71
2021/11/07 08:10:36;;;;;;;4.22;1.50;;;;;;;8.78;100.00;101370.84;5052892;28;20057;-71
2021/11/07 08:13:01;;;;;;;3.25;1.50;;;;;;;8.82;100.00;101372.81;5058961;28;20033;-71
2021/11/07 08:15:27;;;;;;;1.70;1.30;;;;;;;8.88;100.00;101376.47;5068307;28;20036;-71
2021/11/07 08:17:52;;;;;;;2.65;1.40;;;;;;;8.90;100.00;101377.06;5042737;28;20032;-72
2021/11/07 08:20:19;;;;;;;3.08;1.27;;;;;;;8.92;100.00;101372.94;5061534;28;20477;-72
2021/11/07 08:22:45;;;;;;;3.35;1.45;;;;;;;8.96;100.00;101376.00;5060376;28;20036;-72
2021/11/07 08:25:16;;;;;;;3.63;1.10;;;;;;;8.99;100.00;101375.47;5056159;28;20436;-73
2021/11/07 08:27:43;;;;;;;2.08;1.10;;;;;;;9.03;100.00;101370.28;5040779;28;20048;-72
2021/11/07 08:30:12;;;;;;;6.88;1.67;;;;;;;9.07;100.00;101379.72;5058939;28;20623;-80
2021/11/07 08:32:37;;;;;;;2.78;1.35;;;;;;;9.10;100.00;101371.72;5038326;28;20138;-76
2021/11/07 08:35:04;;;;;;;1.50;1.33;;;;;;;9.14;100.00;101383.13;5055739;28;20064;-73
2021/11/07 08:37:55;;;;;;;3.25;1.15;;;;;;;9.16;100.00;101381.75;5059551;28;20028;-73
2021/11/07 08:40:22;;;;;;;3.53;1.50;;;;;;;9.21;100.00;101372.63;5057719;28;20036;-73
2021/11/07 08:42:58;;;;;;;3.97;1.50;;;;;;;9.24;100.00;101374.03;5059625;28;20446;-73
2021/11/07 09:04:19;;;;;;;2.25;1.20;;;;;;;9.52;100.00;101356.25;5067652;28;20025;-72
2021/11/07 09:09:16;;;;;;;3.45;1.00;;;;;;;9.60;100.00;101367.66;5057832;28;20182;-72
2021/11/07 09:11:51;;;;;;;2.67;1.20;;;;;;;9.63;100.00;101366.31;5056026;28;20044;-72
2021/11/07 09:14:18;;;;;;;2.25;1.00;;;;;;;9.68;100.00;101362.75;5057392;28;20033;-72
2021/11/07 09:16:44;;;;;;;2.55;1.20;;;;;;;9.76;100.00;101365.00;5057844;28;20033;-72
2021/11/07 09:19:12;;;;;;;3.08;1.30;;;;;;;9.83;100.00;101366.44;5067732;28;20036;-72
2021/11/07 09:21:41;;;;;;;2.58;1.23;;;;;;;9.91;100.00;101355.94;5057561;28;20028;-72
2021/11/07 09:24:13;;;;;;;4.18;1.17;;;;;;;9.99;100.00;101364.59;5057981;28;20064;-72
2021/11/07 09:26:45;;;;;;;3.70;1.25;;;;;;;10.09;100.00;101366.59;5049723;28;20563;-72
2021/11/07 09:29:21;;;;;;;1.93;1.53;;;;;;;10.18;100.00;101372.47;5057888;28;20036;-72
2021/11/07 09:34:21;;;;;;;3.60;1.30;;;;;;;10.37;100.00;101370.91;5061274;28;20028;-73
2021/11/07 09:36:57;;;;;;;2.20;1.35;;;;;;;10.46;100.00;101372.03;5056641;28;20036;-72
2021/11/07 09:39:38;;;;;;;2.70;1.33;;;;;;;10.51;100.00;101371.22;5064548;28;20390;-72
2021/11/07 09:42:29;;;;;;;3.70;1.38;;;;;;;10.57;100.00;101377.63;5056544;28;20029;-72
2021/11/07 09:44:59;;;;;;;3.38;1.40;;;;;;;10.62;100.00;101374.88;5057125;28;20067;-72
2021/11/07 09:47:27;;;;;;;3.38;1.30;;;;;;;10.66;100.00;101379.59;5052947;28;20037;-72
2021/11/07 09:49:53;;;;;;;5.95;1.30;;;;;;;10.64;100.00;101375.41;5051641;28;20051;-73
2021/11/07 09:52:25;;;;;;;8.60;1.30;;;;;;;10.65;100.00;101374.34;5063962;28;20032;-72
2021/11/07 09:54:57;;;;;;;7.90;1.52;;;;;;;10.64;100.00;101372.66;5062713;28;20037;-73
2021/11/07 09:57:24;;;;;;;3.45;1.50;;;;;;;10.63;100.00;101373.75;5069045;28;20055;-72
2021/11/07 09:59:56;;;;;;;8.02;3.20;;;;;;;10.64;100.00;101383.75;5056187;28;20025;-72
2021/11/07 10:02:22;;;;;;;8.90;3.00;;;;;;;10.66;100.00;101382.38;5059525;28;20028;-72
2021/11/07 10:04:48;;;;;;;11.13;3.60;;;;;;;10.68;100.00;101384.91;5069548;28;20097;-71
2021/11/07 10:07:21;;;;;;;7.60;3.33;;;;;;;10.66;100.00;101379.59;5055601;28;20037;-72
2021/11/07 10:09:52;;;;;;;10.80;3.47;;;;;;;10.71;100.00;101367.69;5056912;28;20025;-72
2021/11/07 10:13:03;;;;;;;11.18;3.38;;;;;;;10.76;100.00;101372.41;5055243;28;20481;-72
2021/11/07 10:15:05;;;;;;;12.40;4.07;;;;;;;10.80;100.00;101374.34;5051474;28;20694;-73
2021/11/07 10:17:38;;;;;;;13.75;4.07;;;;;;;10.81;100.00;101378.81;5063155;28;20118;-72
2021/11/07 10:20:26;;;;;;;;;;;;;;;10.84;100.00;101381.06;5054138;28;20035;-72
2021/11/07 10:23:00;;;;;;;17.40;6.00;;;;;;;10.86;100.00;101378.81;5070941;28;19912;-72
2021/11/07 10:25:42;;;;;;;17.42;5.05;;;;;;;10.88;100.00;101382.16;5062015;28;20067;-72
2021/11/07 10:28:15;;;;;;;15.07;5.10;;;;;;;10.93;100.00;101379.38;5062518;28;20124;-72
2021/11/07 10:30:46;;;;;;;18.58;5.60;;;;;;;10.94;100.00;101381.03;5066612;28;20028;-72
2021/11/07 10:33:35;;;;;;;15.55;5.88;;;;;;;10.95;100.00;101393.03;5055363;28;20059;-72
2021/11/07 10:53:00;;;;;;;19.58;7.30;;;;;;;11.46;100.00;101392.22;5041285;28;20554;-72
2021/11/07 10:55:27;;;;;;;23.30;6.82;;;;;;;11.48;100.00;101387.19;5057670;28;20029;-72
2021/11/07 10:57:58;;;;;;;28.92;7.35;;;;;;;11.51;100.00;101386.66;5052201;28;20154;-72
2021/11/07 11:00:31;;;;;;;22.00;5.68;;;;;;;11.51;100.00;101370.81;5037974;28;20039;-72
2021/11/07 11:02:58;;;;;;;;;;;;;;;11.53;100.00;101371.38;5058553;28;20029;-73
2021/11/07 11:05:26;;;;;;;27.85;6.47;;;;;;;11.56;100.00;101381.06;5069162;28;19948;-75
2021/11/07 11:08:11;;;;;;;26.58;8.15;;;;;;;11.58;100.00;101378.84;5063978;28;20082;-72
2021/11/07 11:10:47;;;;;;;23.65;7.10;;;;;;;11.60;100.00;101374.69;5038102;28;20045;-72
2021/11/07 11:15:52;;;;;;;20.23;5.38;;;;;;;11.68;100.00;101383.59;5058797;28;20036;-72
2021/11/07 11:21:21;;;;;;;27.17;5.50;;;;;;;11.72;100.00;101373.56;5064887;28;20028;-72
2021/11/07 11:23:58;;;;;;;23.50;6.57;;;;;;;11.78;100.00;101369.63;5058173;28;20067;-73
2021/11/07 11:26:46;;;;;;;18.60;5.53;;;;;;;11.81;100.00;101366.28;5055228;28;20040;-73
2021/11/07 11:29:25;;;;;;;27.70;6.22;;;;;;;11.84;100.00;101371.31;5050547;28;20098;-73
2021/11/07 11:34:32;;;;;;;24.58;6.18;;;;;;;11.94;100.00;101373.25;5064962;28;20029;-73
2021/11/07 11:37:18;;;;;;;23.83;5.93;;;;;;;12.00;100.00;101372.97;5056562;28;20516;-73
2021/11/07 11:39:48;;;;;;;22.73;6.03;;;;;;;12.04;100.00;101367.69;5009734;28;20116;-73
2021/11/07 11:42:18;;;;;;;21.50;5.65;;;;;;;12.08;100.00;101377.94;5039844;28;20448;-73
2021/11/07 11:44:45;;;;;;;21.65;5.35;;;;;;;12.11;100.00;101384.91;5052886;28;20037;-73
2021/11/07 11:47:32;;;;;;;20.83;4.68;;;;;;;12.15;100.00;101377.66;5061226;28;20021;-73
2021/11/07 11:52:51;;;;;;;29.50;6.45;;;;;;;12.24;100.00;101383.47;5048034;28;20581;-73
2021/11/07 12:00:31;;;;;;;22.73;5.35;;;;;;;12.42;99.74;101382.84;5060015;28;20029;-73
2021/11/07 12:05:45;;;;;;;24.33;5.63;;;;;;;12.55;99.43;101378.59;5040267;28;20021;-73
2021/11/07 12:08:16;;;;;;;23.35;4.82;;;;;;;12.62;98.83;101375.50;5069023;28;20033;-73
2021/11/07 12:13:43;;;;;;;28.13;6.15;;;;;;;12.69;96.31;101376.03;5059212;28;20032;-73
2021/11/07 12:16:19;;;;;;;26.10;5.28;;;;;;;12.72;96.78;101373.47;5073422;28;20040;-73
2021/11/07 12:19:04;;;;;;;23.55;5.15;;;;;;;12.74;95.74;101379.63;5061216;28;20029;-73
2021/11/07 12:21:48;;;;;;;30.30;8.23;;;;;;;12.72;95.77;101381.84;5054993;28;20037;-73
2021/11/07 12:24:27;;;;;;;27.10;5.75;;;;;;;12.76;94.84;101382.13;5059573;28;20040;-73
2021/11/07 12:26:53;;;;;;;25.55;5.78;;;;;;;12.72;92.95;101381.03;5057740;28;20049;-73
2021/11/07 12:29:53;;;;;;;23.20;4.75;;;;;;;12.69;92.68;101388.00;5053570;28;20036;-73
2021/11/07 12:32:19;;;;;;;31.05;5.82;;;;;;;12.66;92.25;101385.78;5046880;28;20102;-73
2021/11/07 12:35:07;;;;;;;18.50;4.80;;;;;;;12.64;91.53;101379.66;5063602;28;20103;-73
2021/11/07 12:40:47;;;;;;;35.83;10.95;;;;;;;12.66;89.15;101393.31;5054816;28;20039;-73
2021/11/07 12:43:17;;;;;;;23.73;6.72;;;;;;;12.63;88.53;101372.44;5062836;28;20090;-73
2021/11/07 12:45:50;;;;;;;26.38;6.40;;;;;;;12.62;88.07;101376.34;5059698;28;20116;-73
2021/11/07 12:48:43;;;;;;;20.00;6.38;;;;;;;12.63;88.77;101371.59;5056641;28;20036;-73
2021/11/07 12:51:15;;;;;;;22.45;7.32;;;;;;;12.64;89.69;101368.50;5056466;28;20552;-73
2021/11/07 12:53:57;;;;;;;25.75;7.18;;;;;;;12.64;89.18;101362.94;5059933;28;20170;-73
2021/11/07 12:56:52;;;;;;;30.58;8.75;;;;;;;12.63;88.52;101361.28;5057346;28;20040;-73
2021/11/07 12:59:27;;;;;;;27.15;7.05;;;;;;;12.67;88.66;101367.94;5057887;28;20040;-73
2021/11/07 13:02:17;;;;;;;28.92;6.80;;;;;;;12.69;89.31;101374.06;5056241;28;20528;-73
2021/11/07 13:04:48;;;;;;;18.38;4.40;;;;;;;12.69;89.57;101370.44;5044452;28;20056;-73
2021/11/07 13:07:22;;;;;;;24.20;4.40;;;;;;;12.68;88.82;101377.16;5053257;28;20029;-73
2021/11/07 13:09:54;;;;;;;24.30;4.70;;;;;;;12.67;89.17;101373.50;5056954;28;20053;-73
2021/11/07 13:13:09;;;;;;;21.45;4.55;;;;;;;12.68;88.82;101369.63;5062023;28;20078;-73
2021/11/07 13:16:13;;;;;;;28.40;5.18;;;;;;;12.69;88.39;101370.44;5044486;28;20052;-69
2021/11/07 13:28:56;;;;;;;22.40;4.85;;;;;;;12.55;86.03;101366.63;5066398;28;20066;-73